Terminal Aerodrome Forecast
Issued by NWS

Home | Current Version | Previous Version | Text Only | Print | Product List | Glossary On
Versions: 1 2 3 4 5 6 7 8 9 10 11 12 13 14 15
000
FTPQ31 PGUM 241125
TAFGUM
TAF

TAF
PTRO 241125Z 2412/2512 20011KT P6SM VCSH SCT016 SCT040 BKN120
      TEMPO 2412/2416 -SHRA BKN016 OVC030=

USA.gov is the U.S. government's official web portal to all federal, state and local government web resources and services.